sensor_id;sensor_type;location;lat;lon;timestamp;P1;durP1;ratioP1;P2;durP2;ratioP2
6531;SDS011;3299;42.004;24.868;2023-07-31T00:00:30;2.80;;;1.90;;
6531;SDS011;3299;42.004;24.868;2023-07-31T00:02:55;4.10;;;1.90;;
6531;SDS011;3299;42.004;24.868;2023-07-31T00:05:21;1.30;;;1.20;;
6531;SDS011;3299;42.004;24.868;2023-07-31T00:07:46;1.33;;;1.23;;
6531;SDS011;3299;42.004;24.868;2023-07-31T00:10:12;1.63;;;1.10;;
6531;SDS011;3299;42.004;24.868;2023-07-31T00:12:38;1.88;;;1.10;;
6531;SDS011;3299;42.004;24.868;2023-07-31T00:15:07;6.57;;;1.95;;
6531;SDS011;3299;42.004;24.868;2023-07-31T00:17:32;2.33;;;1.30;;
6531;SDS011;3299;42.004;24.868;2023-07-31T00:19:58;1.25;;;1.15;;
6531;SDS011;3299;42.004;24.868;2023-07-31T00:22:23;1.25;;;1.15;;
6531;SDS011;3299;42.004;24.868;2023-07-31T00:24:49;3.75;;;1.60;;
6531;SDS011;3299;42.004;24.868;2023-07-31T00:27:14;7.75;;;1.70;;
6531;SDS011;3299;42.004;24.868;2023-07-31T00:29:40;2.83;;;1.42;;
6531;SDS011;3299;42.004;24.868;2023-07-31T00:32:05;4.63;;;1.67;;
6531;SDS011;3299;42.004;24.868;2023-07-31T00:34:31;1.77;;;1.50;;
6531;SDS011;3299;42.004;24.868;2023-07-31T00:36:56;2.78;;;1.52;;
6531;SDS011;3299;42.004;24.868;2023-07-31T00:39:22;2.20;;;1.60;;
6531;SDS011;3299;42.004;24.868;2023-07-31T00:41:47;4.25;;;1.90;;
6531;SDS011;3299;42.004;24.868;2023-07-31T00:44:13;4.03;;;1.70;;
6531;SDS011;3299;42.004;24.868;2023-07-31T00:46:38;3.45;;;1.77;;
6531;SDS011;3299;42.004;24.868;2023-07-31T00:49:03;4.13;;;1.98;;
6531;SDS011;3299;42.004;24.868;2023-07-31T00:51:30;3.17;;;1.90;;
6531;SDS011;3299;42.004;24.868;2023-07-31T00:53:56;3.47;;;1.85;;
6531;SDS011;3299;42.004;24.868;2023-07-31T00:56:22;4.40;;;2.00;;
6531;SDS011;3299;42.004;24.868;2023-07-31T00:58:49;2.30;;;1.85;;
6531;SDS011;3299;42.004;24.868;2023-07-31T01:01:14;4.55;;;1.95;;
6531;SDS011;3299;42.004;24.868;2023-07-31T01:03:40;5.00;;;2.10;;
6531;SDS011;3299;42.004;24.868;2023-07-31T01:07:07;4.32;;;1.90;;
6531;SDS011;3299;42.004;24.868;2023-07-31T01:09:11;3.00;;;1.63;;
6531;SDS011;3299;42.004;24.868;2023-07-31T01:11:46;2.95;;;2.00;;
6531;SDS011;3299;42.004;24.868;2023-07-31T01:14:17;2.50;;;1.60;;
6531;SDS011;3299;42.004;24.868;2023-07-31T01:16:42;6.05;;;2.00;;
6531;SDS011;3299;42.004;24.868;2023-07-31T01:19:07;2.95;;;2.10;;
6531;SDS011;3299;42.004;24.868;2023-07-31T01:26:49;2.90;;;1.60;;
6531;SDS011;3299;42.004;24.868;2023-07-31T01:29:49;2.53;;;1.60;;
6531;SDS011;3299;42.004;24.868;2023-07-31T01:32:20;2.65;;;1.77;;
6531;SDS011;3299;42.004;24.868;2023-07-31T01:34:47;4.47;;;1.70;;
6531;SDS011;3299;42.004;24.868;2023-07-31T01:37:14;2.42;;;1.90;;
6531;SDS011;3299;42.004;24.868;2023-07-31T01:39:39;3.83;;;1.50;;
6531;SDS011;3299;42.004;24.868;2023-07-31T01:42:04;2.15;;;1.98;;
6531;SDS011;3299;42.004;24.868;2023-07-31T01:44:30;4.97;;;1.92;;
6531;SDS011;3299;42.004;24.868;2023-07-31T01:46:55;7.20;;;2.20;;
6531;SDS011;3299;42.004;24.868;2023-07-31T01:49:21;2.45;;;2.22;;
6531;SDS011;3299;42.004;24.868;2023-07-31T01:51:46;1.77;;;1.65;;
6531;SDS011;3299;42.004;24.868;2023-07-31T01:54:12;2.13;;;1.90;;
6531;SDS011;3299;42.004;24.868;2023-07-31T01:56:37;2.88;;;2.00;;
6531;SDS011;3299;42.004;24.868;2023-07-31T01:59:02;1.80;;;1.70;;
6531;SDS011;3299;42.004;24.868;2023-07-31T02:01:28;5.97;;;2.00;;
6531;SDS011;3299;42.004;24.868;2023-07-31T02:03:53;3.60;;;2.17;;
6531;SDS011;3299;42.004;24.868;2023-07-31T02:06:19;5.13;;;2.10;;
6531;SDS011;3299;42.004;24.868;2023-07-31T02:08:44;3.83;;;2.35;;
6531;SDS011;3299;42.004;24.868;2023-07-31T02:11:10;3.33;;;2.22;;
6531;SDS011;3299;42.004;24.868;2023-07-31T02:13:35;6.95;;;3.13;;
6531;SDS011;3299;42.004;24.868;2023-07-31T02:16:00;5.55;;;1.80;;
6531;SDS011;3299;42.004;24.868;2023-07-31T02:18:26;4.03;;;2.30;;
6531;SDS011;3299;42.004;24.868;2023-07-31T02:20:51;2.53;;;1.70;;
6531;SDS011;3299;42.004;24.868;2023-07-31T02:23:17;2.85;;;2.22;;
6531;SDS011;3299;42.004;24.868;2023-07-31T02:25:43;6.97;;;2.25;;
6531;SDS011;3299;42.004;24.868;2023-07-31T02:28:09;3.58;;;2.05;;
6531;SDS011;3299;42.004;24.868;2023-07-31T02:30:35;2.80;;;1.98;;
6531;SDS011;3299;42.004;24.868;2023-07-31T02:33:00;2.83;;;2.05;;
6531;SDS011;3299;42.004;24.868;2023-07-31T02:35:25;2.38;;;2.17;;
6531;SDS011;3299;42.004;24.868;2023-07-31T02:37:51;3.30;;;1.77;;
6531;SDS011;3299;42.004;24.868;2023-07-31T02:40:16;3.00;;;1.98;;
6531;SDS011;3299;42.004;24.868;2023-07-31T02:42:42;6.03;;;2.53;;
6531;SDS011;3299;42.004;24.868;2023-07-31T02:45:07;2.88;;;1.80;;
6531;SDS011;3299;42.004;24.868;2023-07-31T02:47:33;2.70;;;2.10;;
6531;SDS011;3299;42.004;24.868;2023-07-31T02:49:58;3.08;;;1.90;;
6531;SDS011;3299;42.004;24.868;2023-07-31T02:52:24;2.03;;;1.83;;
6531;SDS011;3299;42.004;24.868;2023-07-31T02:54:50;3.88;;;2.10;;
6531;SDS011;3299;42.004;24.868;2023-07-31T02:57:15;2.55;;;2.35;;
6531;SDS011;3299;42.004;24.868;2023-07-31T02:59:41;4.22;;;2.17;;
6531;SDS011;3299;42.004;24.868;2023-07-31T03:02:06;2.30;;;2.10;;
6531;SDS011;3299;42.004;24.868;2023-07-31T03:04:32;4.18;;;2.05;;
6531;SDS011;3299;42.004;24.868;2023-07-31T03:06:57;3.33;;;1.85;;
6531;SDS011;3299;42.004;24.868;2023-07-31T03:09:23;1.90;;;1.80;;
6531;SDS011;3299;42.004;24.868;2023-07-31T03:11:48;4.32;;;2.15;;
6531;SDS011;3299;42.004;24.868;2023-07-31T03:14:13;3.17;;;2.20;;
6531;SDS011;3299;42.004;24.868;2023-07-31T03:16:39;3.85;;;2.00;;
6531;SDS011;3299;42.004;24.868;2023-07-31T03:19:04;2.35;;;2.15;;
6531;SDS011;3299;42.004;24.868;2023-07-31T03:21:30;3.08;;;2.28;;
6531;SDS011;3299;42.004;24.868;2023-07-31T03:23:55;5.25;;;2.45;;
6531;SDS011;3299;42.004;24.868;2023-07-31T03:26:20;3.25;;;2.20;;
6531;SDS011;3299;42.004;24.868;2023-07-31T03:28:46;2.63;;;2.33;;
6531;SDS011;3299;42.004;24.868;2023-07-31T03:31:11;3.40;;;2.25;;
6531;SDS011;3299;42.004;24.868;2023-07-31T03:33:37;4.63;;;2.50;;
6531;SDS011;3299;42.004;24.868;2023-07-31T03:36:02;3.95;;;2.30;;
6531;SDS011;3299;42.004;24.868;2023-07-31T03:38:28;3.13;;;2.70;;
6531;SDS011;3299;42.004;24.868;2023-07-31T03:40:53;3.15;;;2.28;;
6531;SDS011;3299;42.004;24.868;2023-07-31T03:43:19;3.47;;;2.15;;
6531;SDS011;3299;42.004;24.868;2023-07-31T03:45:44;3.00;;;2.60;;
6531;SDS011;3299;42.004;24.868;2023-07-31T03:48:10;4.28;;;2.35;;
6531;SDS011;3299;42.004;24.868;2023-07-31T03:50:35;3.28;;;2.60;;
6531;SDS011;3299;42.004;24.868;2023-07-31T03:53:00;2.17;;;2.03;;
6531;SDS011;3299;42.004;24.868;2023-07-31T03:55:26;2.50;;;2.30;;
6531;SDS011;3299;42.004;24.868;2023-07-31T03:57:51;5.47;;;2.80;;
6531;SDS011;3299;42.004;24.868;2023-07-31T04:00:17;4.30;;;2.25;;
6531;SDS011;3299;42.004;24.868;2023-07-31T04:02:42;4.55;;;2.85;;
6531;SDS011;3299;42.004;24.868;2023-07-31T04:05:07;5.93;;;3.10;;
6531;SDS011;3299;42.004;24.868;2023-07-31T04:07:33;4.40;;;3.40;;
6531;SDS011;3299;42.004;24.868;2023-07-31T04:09:59;4.07;;;2.90;;
6531;SDS011;3299;42.004;24.868;2023-07-31T04:12:25;6.10;;;3.35;;
6531;SDS011;3299;42.004;24.868;2023-07-31T04:14:50;7.78;;;3.17;;
6531;SDS011;3299;42.004;24.868;2023-07-31T04:17:17;5.80;;;3.67;;
6531;SDS011;3299;42.004;24.868;2023-07-31T04:19:42;4.32;;;3.58;;
6531;SDS011;3299;42.004;24.868;2023-07-31T04:22:08;4.90;;;3.88;;
6531;SDS011;3299;42.004;24.868;2023-07-31T04:24:33;4.00;;;3.35;;
6531;SDS011;3299;42.004;24.868;2023-07-31T04:26:59;7.63;;;3.67;;
6531;SDS011;3299;42.004;24.868;2023-07-31T04:29:24;5.45;;;3.60;;
6531;SDS011;3299;42.004;24.868;2023-07-31T04:31:49;4.88;;;3.75;;
6531;SDS011;3299;42.004;24.868;2023-07-31T04:34:15;4.75;;;3.72;;
6531;SDS011;3299;42.004;24.868;2023-07-31T04:36:40;4.35;;;3.90;;
6531;SDS011;3299;42.004;24.868;2023-07-31T04:39:05;6.93;;;3.90;;
6531;SDS011;3299;42.004;24.868;2023-07-31T04:41:31;3.83;;;3.45;;
6531;SDS011;3299;42.004;24.868;2023-07-31T04:43:56;4.80;;;3.60;;
6531;SDS011;3299;42.004;24.868;2023-07-31T04:46:22;5.15;;;3.55;;
6531;SDS011;3299;42.004;24.868;2023-07-31T04:48:47;4.35;;;3.70;;
6531;SDS011;3299;42.004;24.868;2023-07-31T04:51:13;7.90;;;4.18;;
6531;SDS011;3299;42.004;24.868;2023-07-31T04:53:38;6.40;;;3.90;;
6531;SDS011;3299;42.004;24.868;2023-07-31T04:56:04;4.47;;;3.08;;
6531;SDS011;3299;42.004;24.868;2023-07-31T04:58:29;4.47;;;3.20;;
6531;SDS011;3299;42.004;24.868;2023-07-31T05:00:54;2.97;;;2.60;;
6531;SDS011;3299;42.004;24.868;2023-07-31T05:03:20;3.00;;;2.78;;
6531;SDS011;3299;42.004;24.868;2023-07-31T05:05:45;3.67;;;3.00;;
6531;SDS011;3299;42.004;24.868;2023-07-31T05:08:11;3.15;;;2.95;;
6531;SDS011;3299;42.004;24.868;2023-07-31T05:10:36;3.15;;;2.85;;
6531;SDS011;3299;42.004;24.868;2023-07-31T05:13:02;5.38;;;2.97;;
6531;SDS011;3299;42.004;24.868;2023-07-31T05:15:28;3.70;;;3.35;;
6531;SDS011;3299;42.004;24.868;2023-07-31T05:17:53;4.80;;;3.30;;
6531;SDS011;3299;42.004;24.868;2023-07-31T05:20:19;3.30;;;3.00;;
6531;SDS011;3299;42.004;24.868;2023-07-31T05:22:44;4.13;;;3.72;;
6531;SDS011;3299;42.004;24.868;2023-07-31T05:25:10;3.50;;;3.30;;
6531;SDS011;3299;42.004;24.868;2023-07-31T05:27:35;5.03;;;3.10;;
6531;SDS011;3299;42.004;24.868;2023-07-31T05:30:01;4.70;;;3.13;;
6531;SDS011;3299;42.004;24.868;2023-07-31T05:32:26;3.53;;;3.22;;
6531;SDS011;3299;42.004;24.868;2023-07-31T05:34:52;3.28;;;2.97;;
6531;SDS011;3299;42.004;24.868;2023-07-31T05:37:18;4.13;;;3.13;;
6531;SDS011;3299;42.004;24.868;2023-07-31T05:39:44;3.40;;;3.17;;
6531;SDS011;3299;42.004;24.868;2023-07-31T05:42:09;7.32;;;3.40;;
6531;SDS011;3299;42.004;24.868;2023-07-31T05:44:35;3.38;;;3.03;;
6531;SDS011;3299;42.004;24.868;2023-07-31T05:47:00;5.32;;;3.38;;
6531;SDS011;3299;42.004;24.868;2023-07-31T05:49:26;5.78;;;3.85;;
6531;SDS011;3299;42.004;24.868;2023-07-31T05:51:51;4.20;;;3.53;;
6531;SDS011;3299;42.004;24.868;2023-07-31T05:54:16;3.67;;;3.40;;
6531;SDS011;3299;42.004;24.868;2023-07-31T05:56:42;3.70;;;3.45;;
6531;SDS011;3299;42.004;24.868;2023-07-31T05:59:08;4.32;;;3.40;;
6531;SDS011;3299;42.004;24.868;2023-07-31T06:01:34;3.95;;;3.20;;
6531;SDS011;3299;42.004;24.868;2023-07-31T06:04:00;4.30;;;3.22;;
6531;SDS011;3299;42.004;24.868;2023-07-31T06:06:26;4.95;;;3.03;;
6531;SDS011;3299;42.004;24.868;2023-07-31T06:08:52;3.83;;;3.50;;
6531;SDS011;3299;42.004;24.868;2023-07-31T06:11:17;7.10;;;3.67;;
6531;SDS011;3299;42.004;24.868;2023-07-31T06:13:43;3.42;;;3.20;;
6531;SDS011;3299;42.004;24.868;2023-07-31T06:16:09;7.00;;;4.07;;
6531;SDS011;3299;42.004;24.868;2023-07-31T06:18:35;11.70;;;4.70;;
6531;SDS011;3299;42.004;24.868;2023-07-31T06:21:00;5.95;;;3.95;;
6531;SDS011;3299;42.004;24.868;2023-07-31T06:23:26;4.90;;;4.38;;
6531;SDS011;3299;42.004;24.868;2023-07-31T06:25:51;6.07;;;3.55;;
6531;SDS011;3299;42.004;24.868;2023-07-31T06:28:16;4.40;;;4.10;;
6531;SDS011;3299;42.004;24.868;2023-07-31T06:30:42;5.28;;;4.50;;
6531;SDS011;3299;42.004;24.868;2023-07-31T06:33:07;6.53;;;4.30;;
6531;SDS011;3299;42.004;24.868;2023-07-31T06:35:34;5.28;;;3.65;;
6531;SDS011;3299;42.004;24.868;2023-07-31T06:37:59;6.38;;;3.95;;
6531;SDS011;3299;42.004;24.868;2023-07-31T06:40:25;5.85;;;4.70;;
6531;SDS011;3299;42.004;24.868;2023-07-31T06:42:50;6.80;;;4.15;;
6531;SDS011;3299;42.004;24.868;2023-07-31T06:45:15;8.63;;;5.30;;
6531;SDS011;3299;42.004;24.868;2023-07-31T06:47:41;9.30;;;6.00;;
6531;SDS011;3299;42.004;24.868;2023-07-31T06:50:07;6.63;;;5.90;;
6531;SDS011;3299;42.004;24.868;2023-07-31T06:52:33;8.10;;;5.88;;
6531;SDS011;3299;42.004;24.868;2023-07-31T06:55:31;6.88;;;6.28;;
6531;SDS011;3299;42.004;24.868;2023-07-31T06:57:51;6.97;;;6.07;;
6531;SDS011;3299;42.004;24.868;2023-07-31T07:00:18;7.55;;;6.18;;
6531;SDS011;3299;42.004;24.868;2023-07-31T07:02:44;6.25;;;5.75;;
6531;SDS011;3299;42.004;24.868;2023-07-31T07:05:12;6.95;;;6.35;;
6531;SDS011;3299;42.004;24.868;2023-07-31T07:07:37;6.90;;;6.25;;
6531;SDS011;3299;42.004;24.868;2023-07-31T07:10:03;6.97;;;6.28;;
6531;SDS011;3299;42.004;24.868;2023-07-31T07:12:30;7.47;;;6.88;;
6531;SDS011;3299;42.004;24.868;2023-07-31T07:14:56;6.85;;;6.25;;
6531;SDS011;3299;42.004;24.868;2023-07-31T07:17:22;8.20;;;6.80;;
6531;SDS011;3299;42.004;24.868;2023-07-31T07:19:48;7.85;;;7.05;;
6531;SDS011;3299;42.004;24.868;2023-07-31T07:22:14;8.65;;;7.85;;
6531;SDS011;3299;42.004;24.868;2023-07-31T07:24:39;8.18;;;7.53;;
6531;SDS011;3299;42.004;24.868;2023-07-31T07:27:05;9.00;;;8.10;;
6531;SDS011;3299;42.004;24.868;2023-07-31T07:29:31;8.32;;;7.63;;
6531;SDS011;3299;42.004;24.868;2023-07-31T07:31:56;9.27;;;8.38;;
6531;SDS011;3299;42.004;24.868;2023-07-31T07:34:28;9.10;;;8.20;;
6531;SDS011;3299;42.004;24.868;2023-07-31T07:36:53;8.80;;;7.93;;
6531;SDS011;3299;42.004;24.868;2023-07-31T07:39:19;9.20;;;8.40;;
6531;SDS011;3299;42.004;24.868;2023-07-31T07:41:45;8.95;;;8.25;;
6531;SDS011;3299;42.004;24.868;2023-07-31T07:44:11;9.70;;;8.38;;
6531;SDS011;3299;42.004;24.868;2023-07-31T07:46:36;10.00;;;8.85;;
6531;SDS011;3299;42.004;24.868;2023-07-31T07:49:02;8.43;;;7.70;;
6531;SDS011;3299;42.004;24.868;2023-07-31T07:51:27;9.75;;;8.77;;
6531;SDS011;3299;42.004;24.868;2023-07-31T07:53:55;10.25;;;8.50;;
6531;SDS011;3299;42.004;24.868;2023-07-31T07:56:20;9.57;;;8.57;;
6531;SDS011;3299;42.004;24.868;2023-07-31T07:58:48;9.30;;;8.50;;
6531;SDS011;3299;42.004;24.868;2023-07-31T08:01:14;9.52;;;8.70;;
6531;SDS011;3299;42.004;24.868;2023-07-31T08:03:39;10.30;;;9.30;;
6531;SDS011;3299;42.004;24.868;2023-07-31T08:06:04;10.77;;;9.07;;
6531;SDS011;3299;42.004;24.868;2023-07-31T08:08:30;10.55;;;9.43;;
6531;SDS011;3299;42.004;24.868;2023-07-31T08:10:55;10.75;;;9.45;;
6531;SDS011;3299;42.004;24.868;2023-07-31T08:13:21;10.80;;;9.80;;
6531;SDS011;3299;42.004;24.868;2023-07-31T08:15:46;10.73;;;9.73;;
6531;SDS011;3299;42.004;24.868;2023-07-31T08:18:11;10.80;;;9.70;;
6531;SDS011;3299;42.004;24.868;2023-07-31T08:20:37;11.60;;;9.88;;
6531;SDS011;3299;42.004;24.868;2023-07-31T08:23:03;14.10;;;10.38;;
6531;SDS011;3299;42.004;24.868;2023-07-31T08:25:28;11.60;;;10.43;;
6531;SDS011;3299;42.004;24.868;2023-07-31T08:27:54;11.50;;;10.50;;
6531;SDS011;3299;42.004;24.868;2023-07-31T08:30:20;10.82;;;9.73;;
6531;SDS011;3299;42.004;24.868;2023-07-31T08:32:46;11.85;;;10.65;;
6531;SDS011;3299;42.004;24.868;2023-07-31T08:35:11;11.60;;;10.40;;
6531;SDS011;3299;42.004;24.868;2023-07-31T08:37:37;11.20;;;10.10;;
6531;SDS011;3299;42.004;24.868;2023-07-31T08:40:03;11.48;;;10.43;;
6531;SDS011;3299;42.004;24.868;2023-07-31T08:42:29;11.13;;;10.13;;
6531;SDS011;3299;42.004;24.868;2023-07-31T08:44:55;14.63;;;11.65;;
6531;SDS011;3299;42.004;24.868;2023-07-31T08:47:21;13.30;;;11.80;;
6531;SDS011;3299;42.004;24.868;2023-07-31T08:49:47;13.93;;;12.57;;
6531;SDS011;3299;42.004;24.868;2023-07-31T08:52:14;14.10;;;12.70;;
6531;SDS011;3299;42.004;24.868;2023-07-31T08:54:39;14.13;;;12.65;;
6531;SDS011;3299;42.004;24.868;2023-07-31T08:57:05;14.02;;;12.65;;
6531;SDS011;3299;42.004;24.868;2023-07-31T08:59:32;13.52;;;12.18;;
6531;SDS011;3299;42.004;24.868;2023-07-31T09:02:02;12.55;;;11.20;;
6531;SDS011;3299;42.004;24.868;2023-07-31T09:04:32;12.65;;;11.45;;
6531;SDS011;3299;42.004;24.868;2023-07-31T09:07:00;12.75;;;11.50;;
6531;SDS011;3299;42.004;24.868;2023-07-31T09:09:28;13.50;;;11.77;;
6531;SDS011;3299;42.004;24.868;2023-07-31T09:11:53;13.25;;;11.95;;
6531;SDS011;3299;42.004;24.868;2023-07-31T09:14:20;12.15;;;11.05;;
6531;SDS011;3299;42.004;24.868;2023-07-31T09:16:53;11.75;;;10.63;;
6531;SDS011;3299;42.004;24.868;2023-07-31T09:19:26;12.38;;;10.73;;
6531;SDS011;3299;42.004;24.868;2023-07-31T09:21:58;12.52;;;11.25;;
6531;SDS011;3299;42.004;24.868;2023-07-31T09:24:24;13.05;;;10.70;;
6531;SDS011;3299;42.004;24.868;2023-07-31T09:26:54;11.57;;;10.55;;
6531;SDS011;3299;42.004;24.868;2023-07-31T09:29:21;12.82;;;11.45;;
6531;SDS011;3299;42.004;24.868;2023-07-31T09:31:47;11.55;;;10.55;;
6531;SDS011;3299;42.004;24.868;2023-07-31T09:34:12;12.18;;;10.98;;
6531;SDS011;3299;42.004;24.868;2023-07-31T09:36:50;11.38;;;10.35;;
6531;SDS011;3299;42.004;24.868;2023-07-31T09:39:18;11.88;;;10.77;;
6531;SDS011;3299;42.004;24.868;2023-07-31T09:41:46;10.52;;;9.50;;
6531;SDS011;3299;42.004;24.868;2023-07-31T09:44:18;11.13;;;10.10;;
6531;SDS011;3299;42.004;24.868;2023-07-31T09:46:43;10.80;;;9.80;;
6531;SDS011;3299;42.004;24.868;2023-07-31T09:49:09;11.27;;;10.23;;
6531;SDS011;3299;42.004;24.868;2023-07-31T09:51:36;13.35;;;11.95;;
6531;SDS011;3299;42.004;24.868;2023-07-31T09:56:36;13.05;;;11.75;;
6531;SDS011;3299;42.004;24.868;2023-07-31T09:59:03;13.45;;;11.77;;
6531;SDS011;3299;42.004;24.868;2023-07-31T10:01:30;12.68;;;11.40;;
6531;SDS011;3299;42.004;24.868;2023-07-31T10:03:56;12.57;;;11.27;;
6531;SDS011;3299;42.004;24.868;2023-07-31T10:06:23;13.70;;;11.65;;
6531;SDS011;3299;42.004;24.868;2023-07-31T10:08:50;13.60;;;12.30;;
6531;SDS011;3299;42.004;24.868;2023-07-31T10:11:18;13.45;;;12.15;;
6531;SDS011;3299;42.004;24.868;2023-07-31T10:13:44;14.30;;;12.32;;
6531;SDS011;3299;42.004;24.868;2023-07-31T10:16:10;14.85;;;13.02;;
6531;SDS011;3299;42.004;24.868;2023-07-31T10:18:37;14.40;;;12.93;;
6531;SDS011;3299;42.004;24.868;2023-07-31T10:21:03;13.80;;;12.40;;
6531;SDS011;3299;42.004;24.868;2023-07-31T10:23:29;12.82;;;11.57;;
6531;SDS011;3299;42.004;24.868;2023-07-31T10:25:55;12.48;;;11.18;;
6531;SDS011;3299;42.004;24.868;2023-07-31T10:28:23;12.05;;;10.85;;
6531;SDS011;3299;42.004;24.868;2023-07-31T10:30:50;12.43;;;11.23;;
6531;SDS011;3299;42.004;24.868;2023-07-31T10:33:16;12.02;;;10.93;;
6531;SDS011;3299;42.004;24.868;2023-07-31T10:35:42;11.68;;;10.32;;
6531;SDS011;3299;42.004;24.868;2023-07-31T10:38:11;11.80;;;9.80;;
6531;SDS011;3299;42.004;24.868;2023-07-31T10:40:37;11.68;;;10.60;;
6531;SDS011;3299;42.004;24.868;2023-07-31T10:43:03;11.02;;;10.02;;
6531;SDS011;3299;42.004;24.868;2023-07-31T10:50:49;9.05;;;8.25;;
6531;SDS011;3299;42.004;24.868;2023-07-31T10:53:31;9.73;;;8.73;;
6531;SDS011;3299;42.004;24.868;2023-07-31T10:56:01;9.23;;;8.32;;
6531;SDS011;3299;42.004;24.868;2023-07-31T10:58:31;8.68;;;7.65;;
6531;SDS011;3299;42.004;24.868;2023-07-31T11:00:58;9.35;;;8.43;;
6531;SDS011;3299;42.004;24.868;2023-07-31T11:03:49;8.68;;;7.88;;
6531;SDS011;3299;42.004;24.868;2023-07-31T11:06:17;7.90;;;7.10;;
6531;SDS011;3299;42.004;24.868;2023-07-31T11:08:44;7.97;;;7.28;;
6531;SDS011;3299;42.004;24.868;2023-07-31T11:11:12;10.57;;;7.60;;
6531;SDS011;3299;42.004;24.868;2023-07-31T11:13:40;8.52;;;7.70;;
6531;SDS011;3299;42.004;24.868;2023-07-31T11:16:07;8.30;;;6.80;;
6531;SDS011;3299;42.004;24.868;2023-07-31T11:18:33;8.35;;;7.55;;
6531;SDS011;3299;42.004;24.868;2023-07-31T11:20:58;8.35;;;7.55;;
6531;SDS011;3299;42.004;24.868;2023-07-31T11:23:24;7.50;;;6.80;;
6531;SDS011;3299;42.004;24.868;2023-07-31T11:25:49;7.63;;;6.93;;
6531;SDS011;3299;42.004;24.868;2023-07-31T11:28:16;7.60;;;6.60;;
6531;SDS011;3299;42.004;24.868;2023-07-31T11:30:42;7.40;;;6.78;;
6531;SDS011;3299;42.004;24.868;2023-07-31T11:33:11;7.95;;;7.15;;
6531;SDS011;3299;42.004;24.868;2023-07-31T11:35:48;7.30;;;6.70;;
6531;SDS011;3299;42.004;24.868;2023-07-31T11:38:23;8.45;;;7.65;;
6531;SDS011;3299;42.004;24.868;2023-07-31T11:40:51;10.55;;;8.98;;
6531;SDS011;3299;42.004;24.868;2023-07-31T11:43:17;10.07;;;9.07;;
6531;SDS011;3299;42.004;24.868;2023-07-31T11:45:46;12.00;;;10.77;;
6531;SDS011;3299;42.004;24.868;2023-07-31T11:48:22;9.75;;;8.75;;
6531;SDS011;3299;42.004;24.868;2023-07-31T11:50:52;9.68;;;8.73;;
6531;SDS011;3299;42.004;24.868;2023-07-31T11:53:22;10.25;;;9.35;;
6531;SDS011;3299;42.004;24.868;2023-07-31T11:55:52;10.02;;;9.02;;
6531;SDS011;3299;42.004;24.868;2023-07-31T11:58:19;9.73;;;8.70;;
6531;SDS011;3299;42.004;24.868;2023-07-31T12:00:45;8.70;;;8.00;;
6531;SDS011;3299;42.004;24.868;2023-07-31T12:03:11;9.23;;;7.38;;
6531;SDS011;3299;42.004;24.868;2023-07-31T12:05:37;15.35;;;7.70;;
6531;SDS011;3299;42.004;24.868;2023-07-31T12:08:08;8.77;;;7.05;;
6531;SDS011;3299;42.004;24.868;2023-07-31T12:10:35;8.10;;;6.60;;
6531;SDS011;3299;42.004;24.868;2023-07-31T12:13:02;7.45;;;6.75;;
6531;SDS011;3299;42.004;24.868;2023-07-31T12:15:32;8.00;;;7.00;;
6531;SDS011;3299;42.004;24.868;2023-07-31T12:18:09;7.07;;;6.35;;
6531;SDS011;3299;42.004;24.868;2023-07-31T12:20:39;11.93;;;6.65;;
6531;SDS011;3299;42.004;24.868;2023-07-31T12:23:12;6.97;;;6.30;;
6531;SDS011;3299;42.004;24.868;2023-07-31T12:25:39;7.25;;;6.55;;
6531;SDS011;3299;42.004;24.868;2023-07-31T12:28:04;9.05;;;7.00;;
6531;SDS011;3299;42.004;24.868;2023-07-31T12:30:33;7.18;;;6.60;;
6531;SDS011;3299;42.004;24.868;2023-07-31T12:33:03;8.30;;;6.78;;
6531;SDS011;3299;42.004;24.868;2023-07-31T12:35:37;9.05;;;7.63;;
6531;SDS011;3299;42.004;24.868;2023-07-31T12:38:05;8.30;;;7.45;;
6531;SDS011;3299;42.004;24.868;2023-07-31T12:40:30;8.48;;;7.47;;
6531;SDS011;3299;42.004;24.868;2023-07-31T12:42:56;7.82;;;7.03;;
6531;SDS011;3299;42.004;24.868;2023-07-31T12:45:21;7.68;;;6.90;;
6531;SDS011;3299;42.004;24.868;2023-07-31T12:47:48;8.32;;;7.38;;
6531;SDS011;3299;42.004;24.868;2023-07-31T12:50:13;6.57;;;5.97;;
6531;SDS011;3299;42.004;24.868;2023-07-31T12:52:39;5.78;;;5.22;;
6531;SDS011;3299;42.004;24.868;2023-07-31T12:55:04;6.85;;;4.72;;
6531;SDS011;3299;42.004;24.868;2023-07-31T12:57:30;5.78;;;5.28;;
6531;SDS011;3299;42.004;24.868;2023-07-31T12:59:55;6.00;;;5.45;;
6531;SDS011;3299;42.004;24.868;2023-07-31T13:02:21;5.90;;;5.40;;
6531;SDS011;3299;42.004;24.868;2023-07-31T13:04:46;5.47;;;5.07;;
6531;SDS011;3299;42.004;24.868;2023-07-31T13:07:12;6.10;;;5.60;;
6531;SDS011;3299;42.004;24.868;2023-07-31T13:09:37;5.50;;;5.00;;
6531;SDS011;3299;42.004;24.868;2023-07-31T13:12:03;6.18;;;5.68;;
6531;SDS011;3299;42.004;24.868;2023-07-31T13:14:28;5.82;;;5.32;;
6531;SDS011;3299;42.004;24.868;2023-07-31T13:16:54;5.57;;;5.18;;
6531;SDS011;3299;42.004;24.868;2023-07-31T13:19:19;6.50;;;6.00;;
6531;SDS011;3299;42.004;24.868;2023-07-31T13:21:44;6.60;;;5.97;;
6531;SDS011;3299;42.004;24.868;2023-07-31T13:24:10;5.82;;;5.43;;
6531;SDS011;3299;42.004;24.868;2023-07-31T13:26:36;6.45;;;5.28;;
6531;SDS011;3299;42.004;24.868;2023-07-31T13:29:02;6.18;;;5.65;;
6531;SDS011;3299;42.004;24.868;2023-07-31T13:31:27;6.90;;;5.35;;
6531;SDS011;3299;42.004;24.868;2023-07-31T13:33:53;6.07;;;5.57;;
6531;SDS011;3299;42.004;24.868;2023-07-31T13:36:18;6.45;;;5.90;;
6531;SDS011;3299;42.004;24.868;2023-07-31T13:38:44;5.80;;;5.32;;
6531;SDS011;3299;42.004;24.868;2023-07-31T13:41:09;5.38;;;4.95;;
6531;SDS011;3299;42.004;24.868;2023-07-31T13:43:34;5.63;;;5.22;;
6531;SDS011;3299;42.004;24.868;2023-07-31T13:46:00;5.32;;;4.82;;
6531;SDS011;3299;42.004;24.868;2023-07-31T13:48:31;10.60;;;5.80;;
6531;SDS011;3299;42.004;24.868;2023-07-31T13:50:58;6.07;;;5.38;;
6531;SDS011;3299;42.004;24.868;2023-07-31T13:53:24;7.13;;;5.22;;
6531;SDS011;3299;42.004;24.868;2023-07-31T13:55:49;5.55;;;5.15;;
6531;SDS011;3299;42.004;24.868;2023-07-31T13:58:15;5.57;;;5.18;;
6531;SDS011;3299;42.004;24.868;2023-07-31T14:00:40;5.82;;;5.25;;
6531;SDS011;3299;42.004;24.868;2023-07-31T14:03:05;6.93;;;5.20;;
6531;SDS011;3299;42.004;24.868;2023-07-31T14:05:31;11.00;;;10.10;;
6531;SDS011;3299;42.004;24.868;2023-07-31T14:07:56;5.20;;;4.78;;
6531;SDS011;3299;42.004;24.868;2023-07-31T14:10:22;5.65;;;5.25;;
6531;SDS011;3299;42.004;24.868;2023-07-31T14:12:47;4.95;;;4.65;;
6531;SDS011;3299;42.004;24.868;2023-07-31T14:15:12;6.13;;;5.45;;
6531;SDS011;3299;42.004;24.868;2023-07-31T14:17:38;5.53;;;4.95;;
6531;SDS011;3299;42.004;24.868;2023-07-31T14:20:04;5.72;;;5.30;;
6531;SDS011;3299;42.004;24.868;2023-07-31T14:22:30;5.90;;;5.40;;
6531;SDS011;3299;42.004;24.868;2023-07-31T14:24:58;5.18;;;4.78;;
6531;SDS011;3299;42.004;24.868;2023-07-31T14:27:23;10.27;;;5.53;;
6531;SDS011;3299;42.004;24.868;2023-07-31T14:29:49;6.18;;;5.50;;
6531;SDS011;3299;42.004;24.868;2023-07-31T14:32:14;5.35;;;4.95;;
6531;SDS011;3299;42.004;24.868;2023-07-31T14:34:39;5.50;;;5.00;;
6531;SDS011;3299;42.004;24.868;2023-07-31T14:37:05;5.72;;;4.75;;
6531;SDS011;3299;42.004;24.868;2023-07-31T14:39:30;5.22;;;4.68;;
6531;SDS011;3299;42.004;24.868;2023-07-31T14:41:56;4.85;;;4.45;;
6531;SDS011;3299;42.004;24.868;2023-07-31T14:44:21;6.75;;;5.43;;
6531;SDS011;3299;42.004;24.868;2023-07-31T14:46:46;6.55;;;4.55;;
6531;SDS011;3299;42.004;24.868;2023-07-31T14:49:12;5.68;;;5.22;;
6531;SDS011;3299;42.004;24.868;2023-07-31T14:51:37;5.05;;;4.55;;
6531;SDS011;3299;42.004;24.868;2023-07-31T14:54:03;5.05;;;4.55;;
6531;SDS011;3299;42.004;24.868;2023-07-31T14:56:28;4.75;;;4.35;;
6531;SDS011;3299;42.004;24.868;2023-07-31T14:58:56;5.32;;;4.93;;
6531;SDS011;3299;42.004;24.868;2023-07-31T15:01:23;5.63;;;5.15;;
6531;SDS011;3299;42.004;24.868;2023-07-31T15:03:49;6.40;;;5.53;;